Clermont County, Batavia, OH

11:57 PM EDT on April 23, 2018 (GMT -0400)
Clermont County, Batavia

Weather History for KI69 - May, 2013

Change the Weather History Date:

Sunday, May 26, 2013

  Actual Average (KLUK) Record (KLUK)
Temperature  
Mean Temperature 62 °F -  
Max Temperature 71 °F 76 °F 91 °F (1965)
Min Temperature 53 °F 55 °F 43 °F (1983)
Degree Days  
Heating Degree Days 3    
Growing Degree Days 12 (Base 50)    
Moisture  
Dew Point 45 °F    
Average Humidity 57    
Maximum Humidity 94    
Minimum Humidity 35    
Precipitation  
Precipitation 0.00 in - - ()
Sea Level Pressure  
Sea Level Pressure 30.27 in    
Wind  
Wind Speed 2 mph ()    
Max Wind Speed 8 mph    
Max Gust Speed -    
Visibility 10.0 miles    
Events      
Averages and records for this station are not official NWS values.
T = Trace of Precipitation, MM = Missing Value Source: Averaged Metar Reports

Daily Weather History Graph

Daily Weather History Graph

Search for Another Location

Airport or City:

Astronomy

May. 26, 2013 Rise Set
Actual Time 6:15 AM EDT 8:52 PM EDT
Civil Twilight 5:44 AM EDT 9:23 PM EDT
Nautical Twilight 5:05 AM EDT 10:02 PM EDT
Astronomical Twilight 4:22 AM EDT 10:46 PM EDT
Moon 10:39 PM EDT (5/26) 7:43 AM EDT (5/26)
Length of Visible Light 15h 39m
Length of Day
14h 37m
Waning Gibbous, 97% of the Moon is Illuminated
May 26
Waning Gibbous
May 31
Last Quarter
Jun 8
New
Jun 16
First Quarter
Jun 23
Full

Hourly Weather History & Observations

Time (EDT) Temp. Dew Point Humidity Pressure Visibility Wind Dir Wind Speed Gust Speed Precip Events Conditions
12:18 AM 59.0 °F 50.0 °F 72% 30.28 in 10.0 mi Calm Calm - N/A   Overcast
12:38 AM 59.0 °F 46.4 °F 63% 30.28 in 10.0 mi Calm Calm - N/A   Overcast
12:58 AM 57.2 °F 51.8 °F 82% 30.28 in 10.0 mi Calm Calm - N/A   Overcast
1:18 AM 55.4 °F 51.8 °F 88% 30.27 in 10.0 mi Calm Calm - N/A   Overcast
1:38 AM 55.4 °F 51.8 °F 88% 30.27 in 10.0 mi Calm Calm - N/A   Overcast
1:58 AM 55.4 °F 51.8 °F 88% 30.28 in 10.0 mi Calm Calm - N/A   Overcast
2:18 AM 55.4 °F 51.8 °F 88% 30.27 in 10.0 mi Calm Calm - N/A   Overcast
2:38 AM 55.4 °F 51.8 °F 88% 30.28 in 10.0 mi Calm Calm - N/A   Overcast
2:58 AM 55.4 °F 50.0 °F 82% 30.28 in 10.0 mi Calm Calm - N/A   Overcast
3:18 AM 57.2 °F 50.0 °F 77% 30.28 in 10.0 mi Calm Calm - N/A   Overcast
3:38 AM 55.4 °F 51.8 °F 88% 30.28 in 10.0 mi Calm Calm - N/A   Mostly Cloudy
3:58 AM 55.4 °F 51.8 °F 88% 30.27 in 10.0 mi Calm Calm - N/A   Overcast
4:18 AM 55.4 °F 51.8 °F 88% 30.28 in 10.0 mi Calm Calm - N/A   Overcast
4:38 AM 55.4 °F 51.8 °F 88% 30.27 in 10.0 mi Calm Calm - N/A   Overcast
4:58 AM 55.4 °F 51.8 °F 88% 30.27 in 10.0 mi Calm Calm - N/A   Overcast
5:18 AM 53.6 °F 51.8 °F 94% 30.27 in 10.0 mi Calm Calm - N/A   Overcast
5:38 AM 53.6 °F 51.8 °F 94% 30.27 in 10.0 mi Calm Calm - N/A   Overcast
5:58 AM 53.6 °F 51.8 °F 94% 30.27 in 10.0 mi Calm Calm - N/A   Overcast
6:18 AM 53.6 °F 51.8 °F 94% 30.27 in 10.0 mi Calm Calm - N/A   Overcast
6:38 AM 53.6 °F 50.0 °F 88% 30.27 in 10.0 mi ESE 3.5 mph - N/A   Overcast
6:58 AM 55.4 °F 46.4 °F 72% 30.29 in 10.0 mi ESE 3.5 mph - N/A   Overcast
7:18 AM 55.4 °F 44.6 °F 67% 30.29 in 10.0 mi ESE 5.8 mph - N/A   Overcast
7:38 AM 55.4 °F 42.8 °F 63% 30.29 in 10.0 mi SE 3.5 mph - N/A   Overcast
7:58 AM 55.4 °F 42.8 °F 63% 30.29 in 10.0 mi ESE 5.8 mph - N/A   Overcast
8:17 AM 55.4 °F 41.0 °F 58% 30.30 in 10.0 mi ESE 5.8 mph - N/A   Overcast
8:38 AM 55.4 °F 41.0 °F 58% 30.30 in 10.0 mi ESE 5.8 mph - N/A   Overcast
8:58 AM 57.2 °F 41.0 °F 55% 30.31 in 10.0 mi ESE 5.8 mph - N/A   Overcast
9:18 AM 57.2 °F 41.0 °F 55% 30.31 in 10.0 mi ESE 8.1 mph - N/A   Overcast
9:38 AM 59.0 °F 41.0 °F 51% 30.31 in 10.0 mi ESE 6.9 mph - N/A   Overcast
9:58 AM 59.0 °F 41.0 °F 51% 30.32 in 10.0 mi SE 4.6 mph - N/A   Overcast
10:18 AM 60.8 °F 41.0 °F 48% 30.32 in 10.0 mi East 4.6 mph - N/A   Overcast
10:38 AM 62.6 °F 41.0 °F 45% 30.32 in 10.0 mi ESE 4.6 mph - N/A   Overcast
10:58 AM 62.6 °F 39.2 °F 42% 30.32 in 10.0 mi South 5.8 mph - N/A   Overcast
11:18 AM 62.6 °F 41.0 °F 45% 30.31 in 10.0 mi SSE 6.9 mph - N/A   Mostly Cloudy
11:38 AM 64.4 °F 41.0 °F 42% 30.31 in 10.0 mi SSE 4.6 mph - N/A   Clear
11:58 AM 64.4 °F 41.0 °F 42% 30.31 in 10.0 mi SE 6.9 mph - N/A   Clear
12:18 PM 64.4 °F 41.0 °F 42% 30.31 in 10.0 mi Calm Calm - N/A   Clear
12:38 PM 66.2 °F 42.8 °F 43% 30.31 in 10.0 mi ESE 4.6 mph - N/A   Clear
12:58 PM 68.0 °F 39.2 °F 35% 30.30 in 10.0 mi Calm Calm - N/A   Clear
1:18 PM 66.2 °F 41.0 °F 40% 30.30 in 10.0 mi SSE 4.6 mph - N/A   Clear
1:38 PM 68.0 °F 41.0 °F 37% 30.30 in 10.0 mi SSE 3.5 mph - N/A   Clear
1:58 PM 68.0 °F 39.2 °F 35% 30.29 in 10.0 mi Calm Calm - N/A   Clear
2:18 PM 69.8 °F 42.8 °F 38% 30.28 in 10.0 mi NNE 3.5 mph - N/A   Clear
2:38 PM 68.0 °F 41.0 °F 37% 30.28 in 10.0 mi Calm Calm - N/A   Clear
2:58 PM 69.8 °F 42.8 °F 38% 30.27 in 10.0 mi SSE 3.5 mph - N/A   Clear
3:18 PM 69.8 °F 42.8 °F 38% 30.27 in 10.0 mi ESE 4.6 mph - N/A   Clear
3:38 PM 68.0 °F 42.8 °F 40% 30.26 in 10.0 mi Calm Calm - N/A   Clear
3:58 PM 69.8 °F 41.0 °F 35% 30.26 in 10.0 mi West 3.5 mph - N/A   Clear
4:18 PM 69.8 °F 41.0 °F 35% 30.26 in 10.0 mi NNE 3.5 mph - N/A   Clear
4:38 PM 69.8 °F 42.8 °F 38% 30.26 in 10.0 mi East 4.6 mph - N/A   Clear
4:58 PM 69.8 °F 42.8 °F 38% 30.25 in 10.0 mi East 3.5 mph - N/A   Clear
5:18 PM 71.6 °F 42.8 °F 35% 30.25 in 10.0 mi SE 4.6 mph - N/A   Clear
5:38 PM 69.8 °F 42.8 °F 38% 30.25 in 10.0 mi East 3.5 mph - N/A   Clear
5:58 PM 69.8 °F 41.0 °F 35% 30.25 in 10.0 mi Calm Calm - N/A   Clear
6:18 PM 69.8 °F 42.8 °F 38% 30.24 in 10.0 mi Calm Calm - N/A   Scattered Clouds
6:38 PM 69.8 °F 44.6 °F 40% 30.23 in 10.0 mi SSE 4.6 mph - N/A   Scattered Clouds
6:57 PM 68.0 °F 42.8 °F 40% 30.21 in 10.0 mi SSE 3.5 mph - N/A   Clear
7:18 PM 68.0 °F 44.6 °F 43% 30.20 in 10.0 mi SE 3.5 mph - N/A   Scattered Clouds
7:38 PM 68.0 °F 44.6 °F 43% 30.20 in 10.0 mi Calm Calm - N/A   Clear
7:57 PM 68.0 °F 44.6 °F 43% 30.20 in 10.0 mi Calm Calm - N/A   Clear
8:18 PM 68.0 °F 44.6 °F 43% 30.20 in 10.0 mi Calm Calm - N/A   Scattered Clouds
8:38 PM 66.2 °F 44.6 °F 46% 30.20 in 10.0 mi Calm Calm - N/A   Clear
8:57 PM 66.2 °F 44.6 °F 46% 30.20 in 10.0 mi Calm Calm - N/A   Clear
9:18 PM 66.2 °F 44.6 °F 46% 30.20 in 7.0 mi Calm Calm - N/A   Scattered Clouds
9:38 PM 64.4 °F 44.6 °F 49% 30.21 in 10.0 mi Calm Calm - N/A   Scattered Clouds
9:57 PM 64.4 °F 46.4 °F 52% 30.21 in 10.0 mi Calm Calm - N/A   Scattered Clouds
10:18 PM 60.8 °F 50.0 °F 68% 30.22 in 10.0 mi East 3.5 mph - N/A   Scattered Clouds
10:38 PM 62.6 °F 46.4 °F 55% 30.23 in 10.0 mi SE 4.6 mph - N/A   Mostly Cloudy
10:58 PM 62.6 °F 46.4 °F 55% 30.23 in 10.0 mi SE 3.5 mph - N/A   Overcast
11:18 PM 62.6 °F 44.6 °F 52% 30.23 in 10.0 mi Calm Calm - N/A   Overcast
11:38 PM 62.6 °F 44.6 °F 52% 30.23 in 10.0 mi ESE 3.5 mph - N/A   Overcast
11:58 PM 62.6 °F 44.6 °F 52% 30.23 in 10.0 mi SE 4.6 mph - N/A   Overcast